< < Back
Terminal Aerodrome Forecast


Current Version              Previous Versions:   1  2  3  4  5  6  7  8  9  

Terminal Aerodrome Forecast

123
FTUS42 KFFC 151800 CCA
TAFMCN
TAF COR
KMCN 151809Z 1518/1618 VRB03KT P6SM BKN015
     FM152000 23006KT P6SM VCSH SCT025 BKN040
      TEMPO 1522/1602 4SM -TSRA BKN025CB
     FM160300 VRB03KT P6SM VCSH SCT030 BKN050
     FM160600 25003KT 5SM BR VCSH BKN025
     FM161000 28005KT 6SM BR BKN008
     FM161500 31008KT P6SM SCT025 BKN040=

Latest METAR

575
SAUS80 KWBC 160700 RRA
MTRMCN
METAR KMCN 160653Z AUTO 00000KT 7SM CLR 21/21 A3007 RMK AO2 SLP178
T02110211 TSNO


USA.gov is the U.S. government's official web portal to all federal, state and local government web resources and services.